createdAt,value
2022-10-18T00:07:35.956Z,101676.03
2022-10-18T00:17:39.313Z,101660.03
2022-10-18T00:27:41.133Z,101650.53
2022-10-18T00:37:42.946Z,101644.16
2022-10-18T00:47:53.553Z,101663.13
2022-10-18T00:57:58.338Z,101644.91
2022-10-18T01:08:27.995Z,101641.41
2022-10-18T01:18:54.491Z,101631.13
2022-10-18T01:29:15.795Z,101624.81
2022-10-18T01:39:40.207Z,101618.84
2022-10-18T01:49:43.897Z,101600.31
2022-10-18T01:59:59.056Z,101603.66
2022-10-18T02:20:26.327Z,101582.59
2022-10-18T02:31:10.891Z,101574.47
2022-10-18T02:41:22.315Z,101583.06
2022-10-18T02:51:29.092Z,101580.31
2022-10-18T03:01:30.980Z,101582.03
2022-10-18T03:11:33.044Z,101587.69
2022-10-18T03:21:34.739Z,101604.03
2022-10-18T03:31:36.542Z,101601.47
2022-10-18T03:41:38.132Z,101609.88
2022-10-18T03:51:41.859Z,101601.94
2022-10-18T04:01:43.370Z,101602.53
2022-10-18T04:11:47.743Z,101585.84
2022-10-18T04:21:51.429Z,101590.19
2022-10-18T04:31:53.208Z,101588.13
2022-10-18T04:41:56.874Z,101584.09
2022-10-18T04:51:59.394Z,101572.53
2022-10-18T05:02:01.075Z,101553.47
2022-10-18T05:12:02.784Z,101566.00
2022-10-18T05:22:04.430Z,101559.94
2022-10-18T05:32:06.026Z,101581.53
2022-10-18T05:42:08.357Z,101575.63
2022-10-18T05:52:09.942Z,101571.59
2022-10-18T06:02:13.088Z,101570.34
2022-10-18T06:12:14.781Z,101573.06
2022-10-18T06:22:19.722Z,101582.34
2022-10-18T06:32:25.760Z,101587.59
2022-10-18T06:42:27.299Z,101597.97
2022-10-18T06:52:30.030Z,101600.50
2022-10-18T07:02:32.108Z,101596.94
2022-10-18T07:12:34.380Z,101601.28
2022-10-18T07:22:38.201Z,101582.22
2022-10-18T07:32:40.019Z,101585.56
2022-10-18T07:42:41.563Z,101580.00
2022-10-18T07:52:43.191Z,101575.63
2022-10-18T08:02:44.888Z,101565.34
2022-10-18T08:12:51.813Z,101550.03
2022-10-18T08:22:57.713Z,101545.72
2022-10-18T08:33:02.366Z,101537.06
2022-10-18T08:43:09.022Z,101516.91
2022-10-18T08:53:19.519Z,101517.13
2022-10-18T09:03:56.192Z,101494.41
2022-10-18T09:14:35.102Z,101488.19
2022-10-18T09:24:50.975Z,101480.03
2022-10-18T09:35:20.004Z,101463.06
2022-10-18T09:45:32.726Z,101448.88
2022-10-18T09:55:43.199Z,101442.56
2022-10-18T10:05:45.454Z,101432.00
2022-10-18T10:15:56.787Z,101412.56
2022-10-18T10:26:02.744Z,101400.13
2022-10-18T10:36:16.002Z,101383.28
2022-10-18T10:46:21.633Z,101365.00
2022-10-18T10:56:33.652Z,101357.84
2022-10-18T11:07:01.671Z,101343.84
2022-10-18T11:17:32.487Z,101334.88
2022-10-18T11:27:55.410Z,101321.44
2022-10-18T11:38:35.314Z,101301.38
2022-10-18T11:49:00.138Z,101282.16
2022-10-18T11:59:52.277Z,101261.94
2022-10-18T12:09:55.610Z,101242.91
2022-10-18T12:20:00.150Z,101241.97
2022-10-18T12:30:34.676Z,101224.75
2022-10-18T12:40:43.419Z,101215.31
2022-10-18T12:50:45.101Z,101186.03
2022-10-18T13:00:50.634Z,101177.44
2022-10-18T13:11:27.518Z,101174.72
2022-10-18T13:21:43.519Z,101155.78
2022-10-18T13:32:11.023Z,101143.06
2022-10-18T13:42:28.512Z,101151.75
2022-10-18T13:53:05.524Z,101153.50
2022-10-18T14:14:17.354Z,101128.13
2022-10-18T14:24:25.869Z,101120.50
2022-10-18T14:34:27.684Z,101108.03
2022-10-18T14:44:35.562Z,101108.84
2022-10-18T14:54:39.988Z,101103.41
2022-10-18T15:04:44.915Z,101086.34
2022-10-18T15:14:55.617Z,101070.59
2022-10-18T15:25:30.806Z,101062.44
2022-10-18T15:35:35.887Z,101054.06
2022-10-18T15:45:45.550Z,101063.34
2022-10-18T15:55:55.722Z,101046.03
2022-10-18T16:06:05.594Z,101064.28
2022-10-18T16:16:09.704Z,101046.63
2022-10-18T16:26:12.999Z,101046.91
2022-10-18T16:36:21.470Z,101060.56
2022-10-18T16:46:28.699Z,101067.41
2022-10-18T16:56:32.647Z,101042.06
2022-10-18T17:06:38.392Z,101056.09
2022-10-18T17:16:45.410Z,101045.81
2022-10-18T17:26:51.442Z,101069.47
2022-10-18T17:36:53.505Z,101060.94
2022-10-18T17:46:55.530Z,101048.94
2022-10-18T17:57:09.488Z,101037.84
2022-10-18T18:07:13.584Z,101021.47
2022-10-18T18:17:18.791Z,101037.91
2022-10-18T18:27:23.453Z,101036.13
2022-10-18T18:37:28.390Z,101020.59
2022-10-18T18:47:30.552Z,101024.91
2022-10-18T18:57:33.199Z,101013.66
2022-10-18T19:07:38.520Z,101011.03
2022-10-18T19:17:47.563Z,101000.63
2022-10-18T19:27:49.676Z,101003.19
2022-10-18T19:37:51.913Z,101002.28
2022-10-18T19:47:53.876Z,101009.94
2022-10-18T19:57:55.808Z,100999.53
2022-10-18T20:07:58.506Z,100990.91
2022-10-18T20:18:02.374Z,100983.84
2022-10-18T20:28:04.946Z,100973.47
2022-10-18T20:38:08.633Z,100972.50
2022-10-18T20:48:10.321Z,100974.13
2022-10-18T20:58:12.463Z,100972.38
2022-10-18T21:08:16.112Z,100957.59
2022-10-18T21:18:17.752Z,100953.25
2022-10-18T21:28:19.320Z,100953.28
2022-10-18T21:38:21.946Z,100949.66
2022-10-18T21:48:23.613Z,100931.44
2022-10-18T21:58:26.231Z,100909.03
2022-10-18T22:08:29.150Z,100904.16
2022-10-18T22:18:33.994Z,100906.88
2022-10-18T22:28:36.402Z,100892.34
2022-10-18T22:38:38.974Z,100888.09
2022-10-18T22:48:42.259Z,100879.53
2022-10-18T22:58:44.914Z,100884.75
2022-10-18T23:08:46.967Z,100888.22
2022-10-18T23:18:54.162Z,100862.34
2022-10-18T23:28:56.291Z,100871.88
2022-10-18T23:38:59.214Z,100858.91
2022-10-18T23:49:00.798Z,100847.53
2022-10-18T23:59:02.647Z,100859.50
